Time;durP1;ratioP1;P1;durP2;ratioP2;P2;SDS_P1;SDS_P2;PMS_P1;PMS_P2;Temp;Humidity;BMP_temperature;BMP_pressure;BME280_temperature;BME280_humidity;BME280_pressure;Samples;Min_cycle;Max_cycle;Signal;HPM_P1;HPM_P2
2023/08/01 00:01:51;;;;;;;6.97;3.38;;;20.40;64.80;;;;;;5046308;28;20029;-62
2023/08/01 00:04:17;;;;;;;6.50;3.00;;;20.40;64.90;;;;;;5044265;28;20509;-61
2023/08/01 00:06:42;;;;;;;8.02;2.92;;;20.40;65.30;;;;;;5044459;28;20551;-61
2023/08/01 00:09:08;;;;;;;5.18;3.10;;;20.40;65.60;;;;;;5046340;28;20028;-61
2023/08/01 00:11:34;;;;;;;5.35;3.00;;;20.40;65.80;;;;;;5037316;28;20024;-61
2023/08/01 00:13:59;;;;;;;4.70;2.78;;;20.40;65.90;;;;;;5040319;28;20083;-60
2023/08/01 00:16:25;;;;;;;4.45;2.65;;;20.40;65.90;;;;;;5037697;28;20037;-60
2023/08/01 00:18:50;;;;;;;7.03;3.25;;;20.40;65.90;;;;;;5048108;28;20044;-60
2023/08/01 00:21:16;;;;;;;5.85;2.97;;;20.40;66.00;;;;;;5037643;28;20032;-60
2023/08/01 00:23:42;;;;;;;9.10;3.00;;;20.40;66.40;;;;;;5022491;28;20025;-62
2023/08/01 00:26:07;;;;;;;4.90;3.13;;;20.40;66.50;;;;;;5043871;28;20048;-60
2023/08/01 00:28:33;;;;;;;5.00;3.15;;;20.40;66.60;;;;;;5046313;28;20026;-61
2023/08/01 00:31:08;;;;;;;5.05;3.00;;;20.30;66.70;;;;;;5042621;28;20465;-60
2023/08/01 00:33:34;;;;;;;6.38;2.88;;;20.30;67.60;;;;;;5040736;28;20033;-63
2023/08/01 00:36:00;;;;;;;4.95;2.63;;;20.30;66.90;;;;;;5038871;28;20039;-61
2023/08/01 00:38:26;;;;;;;5.22;2.78;;;20.30;67.10;;;;;;5041066;28;20483;-61
2023/08/01 00:40:52;;;;;;;6.50;2.28;;;20.30;67.20;;;;;;5039412;28;20060;-61
2023/08/01 00:43:18;;;;;;;5.65;2.90;;;20.20;67.20;;;;;;5042223;28;20084;-61
2023/08/01 00:45:45;;;;;;;5.72;3.13;;;20.20;67.30;;;;;;5030233;28;20041;-61
2023/08/01 00:48:11;;;;;;;6.07;2.97;;;20.30;67.40;;;;;;5054508;28;20104;-61
2023/08/01 00:50:37;;;;;;;5.53;3.13;;;20.20;67.20;;;;;;5040966;28;20097;-60
2023/08/01 00:53:03;;;;;;;5.13;2.83;;;20.20;67.40;;;;;;5036818;28;20135;-61
2023/08/01 00:55:30;;;;;;;5.43;2.95;;;20.20;67.30;;;;;;5021632;28;20156;-60
2023/08/01 00:57:56;;;;;;;5.70;2.92;;;20.20;67.40;;;;;;5044198;28;20057;-60
2023/08/01 01:00:21;;;;;;;4.35;3.00;;;20.20;67.40;;;;;;5043773;28;20506;-60
2023/08/01 01:02:47;;;;;;;3.83;2.80;;;20.20;67.50;;;;;;5038807;28;20029;-60
2023/08/01 01:05:13;;;;;;;4.43;2.65;;;20.20;67.50;;;;;;5035660;28;20518;-62
2023/08/01 01:07:40;;;;;;;5.53;3.03;;;20.20;67.50;;;;;;5036471;28;20025;-61
2023/08/01 01:10:06;;;;;;;4.25;2.90;;;20.20;67.70;;;;;;5045818;28;20025;-60
2023/08/01 01:12:31;;;;;;;9.30;2.83;;;20.20;67.50;;;;;;5050919;28;20032;-60
2023/08/01 01:14:57;;;;;;;12.13;2.88;;;20.10;67.60;;;;;;5035927;28;20014;-61
2023/08/01 01:17:23;;;;;;;5.00;2.95;;;20.10;67.80;;;;;;5043606;28;20103;-60
2023/08/01 01:19:48;;;;;;;4.75;3.08;;;20.10;68.20;;;;;;5041630;28;20111;-60
2023/08/01 01:22:16;;;;;;;5.47;3.17;;;20.10;68.40;;;;;;5045015;28;20033;-60
2023/08/01 01:24:42;;;;;;;8.10;3.15;;;20.10;68.80;;;;;;5024814;28;20029;-60
2023/08/01 01:27:09;;;;;;;5.60;2.78;;;20.10;68.70;;;;;;5041813;28;20495;-60
2023/08/01 01:29:36;;;;;;;6.47;3.15;;;20.10;68.50;;;;;;5031407;28;20091;-60
2023/08/01 01:32:03;;;;;;;5.13;2.80;;;20.10;68.50;;;;;;5042060;28;20029;-59
2023/08/01 01:34:29;;;;;;;5.15;3.25;;;20.10;68.80;;;;;;5041056;28;20492;-60
2023/08/01 01:36:55;;;;;;;4.07;2.88;;;20.10;68.80;;;;;;5039920;28;20037;-60
2023/08/01 01:39:21;;;;;;;6.50;3.38;;;20.10;68.90;;;;;;5047465;28;20083;-62
2023/08/01 01:41:47;;;;;;;3.92;2.58;;;20.10;69.00;;;;;;5043599;28;20460;-60
2023/08/01 01:44:12;;;;;;;4.78;2.78;;;20.10;69.00;;;;;;5036709;28;20045;-60
2023/08/01 01:46:38;;;;;;;4.70;2.90;;;20.10;69.00;;;;;;5039854;28;20048;-60
2023/08/01 01:49:03;;;;;;;6.45;2.90;;;20.10;69.20;;;;;;5039686;28;20036;-61
2023/08/01 01:51:30;;;;;;;6.13;3.10;;;20.10;69.30;;;;;;5042153;28;20537;-60
2023/08/01 01:53:56;;;;;;;4.30;2.80;;;20.00;69.20;;;;;;5047003;28;20096;-60
2023/08/01 01:56:22;;;;;;;5.70;3.53;;;20.00;69.30;;;;;;5032135;28;20568;-60
2023/08/01 01:58:47;;;;;;;5.50;3.15;;;20.00;69.40;;;;;;5021990;28;20021;-62
2023/08/01 02:01:13;;;;;;;3.75;2.88;;;20.00;69.40;;;;;;5039040;28;20029;-61
2023/08/01 02:03:39;;;;;;;7.65;3.10;;;20.00;69.60;;;;;;5038493;28;20021;-61
2023/08/01 02:06:05;;;;;;;8.52;3.17;;;20.00;69.90;;;;;;5045772;28;20071;-60
2023/08/01 02:08:30;;;;;;;6.13;2.67;;;20.00;69.90;;;;;;5040161;28;20052;-60
2023/08/01 02:10:58;;;;;;;10.85;3.28;;;20.00;69.90;;;;;;5037282;28;20029;-60
2023/08/01 02:13:27;;;;;;;9.32;3.80;;;20.00;69.80;;;;;;5042051;28;20037;-60
2023/08/01 02:15:53;;;;;;;4.60;2.95;;;20.00;69.80;;;;;;5043121;28;20033;-60
2023/08/01 02:18:20;;;;;;;6.22;3.65;;;20.00;69.90;;;;;;5040616;28;20033;-61
2023/08/01 02:20:45;;;;;;;5.72;3.55;;;20.00;70.00;;;;;;5020920;28;20086;-60
2023/08/01 02:23:11;;;;;;;6.68;3.22;;;20.00;70.10;;;;;;5030522;28;20034;-61
2023/08/01 02:25:40;;;;;;;7.75;3.50;;;20.00;70.00;;;;;;5047186;28;20357;-61
2023/08/01 02:28:07;;;;;;;3.63;2.72;;;20.00;70.30;;;;;;5046407;28;20460;-60
2023/08/01 02:30:36;;;;;;;5.63;2.83;;;20.00;69.90;;;;;;5040932;28;20057;-61
2023/08/01 02:33:02;;;;;;;6.57;2.88;;;20.00;69.90;;;;;;5042880;28;20538;-61
2023/08/01 02:35:28;;;;;;;4.10;3.03;;;20.00;69.90;;;;;;5039800;28;20029;-60
2023/08/01 02:37:55;;;;;;;7.78;3.05;;;20.00;69.80;;;;;;5041402;28;20025;-60
2023/08/01 02:40:20;;;;;;;4.90;2.83;;;20.00;70.60;;;;;;5040257;28;20056;-60
2023/08/01 02:42:46;;;;;;;5.88;3.00;;;20.00;70.00;;;;;;5038299;28;20030;-61
2023/08/01 02:45:12;;;;;;;5.93;3.00;;;19.90;70.00;;;;;;5035296;28;20120;-60
2023/08/01 02:47:38;;;;;;;4.45;2.95;;;19.90;70.10;;;;;;5040068;28;20021;-60
2023/08/01 02:50:04;;;;;;;5.97;3.05;;;19.90;70.40;;;;;;5039970;28;20033;-60
2023/08/01 02:52:30;;;;;;;8.30;2.92;;;19.90;70.60;;;;;;5039491;28;20100;-62
2023/08/01 02:54:55;;;;;;;6.82;3.40;;;19.90;70.50;;;;;;5037423;28;20460;-61
2023/08/01 02:57:21;;;;;;;4.95;3.15;;;19.90;70.70;;;;;;5039966;28;20127;-61
2023/08/01 02:59:47;;;;;;;5.72;3.10;;;19.90;70.90;;;;;;5044598;28;20494;-61
2023/08/01 03:02:12;;;;;;;5.50;2.80;;;19.90;70.80;;;;;;5040429;28;20021;-61
2023/08/01 03:04:38;;;;;;;4.32;2.90;;;19.90;70.80;;;;;;5041228;28;20029;-60
2023/08/01 03:07:04;;;;;;;4.85;3.17;;;19.90;70.80;;;;;;5043999;28;20061;-61
2023/08/01 03:09:29;;;;;;;5.13;3.28;;;20.00;70.70;;;;;;5045169;28;20044;-61
2023/08/01 03:11:55;;;;;;;4.60;2.95;;;19.90;70.50;;;;;;5045469;28;20029;-60
2023/08/01 03:14:21;;;;;;;6.45;3.38;;;19.90;70.50;;;;;;5035853;28;20049;-60
2023/08/01 03:16:46;;;;;;;6.47;3.65;;;19.90;70.50;;;;;;4956935;28;20067;-61
2023/08/01 03:19:13;;;;;;;6.80;3.83;;;19.90;70.50;;;;;;5037932;28;20467;-59
2023/08/01 03:21:39;;;;;;;5.82;3.58;;;19.90;70.50;;;;;;5039915;28;20025;-61
2023/08/01 03:24:08;;;;;;;5.20;3.30;;;19.90;70.60;;;;;;5044924;28;20074;-61
2023/08/01 03:26:37;;;;;;;7.60;3.65;;;19.90;70.80;;;;;;5045995;28;20440;-61
2023/08/01 03:29:03;;;;;;;5.55;3.45;;;19.90;70.90;;;;;;5040846;28;20031;-60
2023/08/01 03:31:29;;;;;;;7.93;3.47;;;19.90;71.00;;;;;;5040040;28;20363;-61
2023/08/01 03:33:55;;;;;;;6.07;3.00;;;19.90;71.20;;;;;;5048731;28;20036;-61
2023/08/01 03:36:20;;;;;;;6.00;3.30;;;19.90;71.20;;;;;;5048255;28;20039;-60
2023/08/01 03:38:46;;;;;;;8.20;3.53;;;19.90;71.30;;;;;;5042950;28;20022;-60
2023/08/01 03:41:13;;;;;;;9.25;3.22;;;19.90;71.30;;;;;;5043182;28;20104;-60
2023/08/01 03:43:39;;;;;;;6.03;3.05;;;19.90;71.40;;;;;;5038225;28;20033;-60
2023/08/01 03:46:04;;;;;;;6.20;3.30;;;19.90;71.30;;;;;;5046071;28;20149;-61
2023/08/01 03:48:30;;;;;;;6.28;3.45;;;19.90;71.20;;;;;;5025069;28;20427;-60
2023/08/01 03:50:56;;;;;;;5.25;3.10;;;19.90;71.20;;;;;;5026204;28;20029;-59
2023/08/01 03:53:22;;;;;;;3.58;2.92;;;19.90;71.20;;;;;;5043775;28;20017;-62
2023/08/01 03:55:48;;;;;;;4.45;3.22;;;19.90;71.20;;;;;;5047302;28;20048;-60
2023/08/01 03:58:14;;;;;;;5.82;3.13;;;19.90;71.30;;;;;;5033242;28;20033;-59
2023/08/01 04:00:40;;;;;;;5.63;3.20;;;19.90;71.30;;;;;;5044522;28;20117;-61
2023/08/01 04:03:06;;;;;;;4.15;3.00;;;19.90;71.30;;;;;;5039432;28;20109;-60
2023/08/01 04:05:31;;;;;;;7.20;3.00;;;19.90;71.20;;;;;;5044872;28;20028;-63
2023/08/01 04:07:57;;;;;;;6.30;3.28;;;20.00;71.20;;;;;;5045950;28;20540;-60
2023/08/01 04:10:23;;;;;;;4.40;2.75;;;19.90;71.70;;;;;;5019397;28;20637;-61
2023/08/01 04:12:49;;;;;;;4.88;3.00;;;20.00;71.00;;;;;;5047502;28;20025;-61
2023/08/01 04:15:15;;;;;;;3.25;2.83;;;19.90;71.10;;;;;;5041691;28;20148;-61
2023/08/01 04:17:41;;;;;;;4.88;3.20;;;19.90;71.30;;;;;;4969567;28;20022;-61
2023/08/01 04:20:07;;;;;;;6.30;2.90;;;19.90;71.30;;;;;;5046002;28;20022;-62
2023/08/01 04:22:33;;;;;;;3.97;2.78;;;20.00;71.50;;;;;;5041725;28;20060;-62
2023/08/01 04:24:58;;;;;;;6.28;2.88;;;20.00;71.20;;;;;;5045775;28;20033;-61
2023/08/01 04:27:24;;;;;;;5.57;2.75;;;20.00;71.20;;;;;;5038825;28;20040;-61
2023/08/01 04:29:50;;;;;;;5.57;3.10;;;20.00;71.20;;;;;;5045177;28;20032;-60
2023/08/01 04:32:15;;;;;;;5.32;2.95;;;20.00;71.00;;;;;;5024517;28;20055;-60
2023/08/01 04:34:42;;;;;;;8.50;3.10;;;20.00;70.80;;;;;;5046252;28;20384;-62
2023/08/01 04:37:07;;;;;;;4.18;3.03;;;20.00;70.90;;;;;;5041829;28;20549;-60
2023/08/01 04:39:34;;;;;;;6.57;3.17;;;20.00;70.80;;;;;;5034805;28;20025;-60
2023/08/01 04:41:59;;;;;;;4.40;2.92;;;20.00;70.80;;;;;;5040669;28;20029;-60
2023/08/01 04:44:25;;;;;;;4.03;2.45;;;19.90;70.90;;;;;;5042137;28;20022;-61
2023/08/01 04:46:51;;;;;;;6.28;2.92;;;19.90;70.90;;;;;;5024269;28;20045;-61
2023/08/01 04:49:18;;;;;;;6.63;2.78;;;19.90;70.80;;;;;;5040583;28;20031;-60
2023/08/01 04:51:44;;;;;;;5.10;2.97;;;19.90;70.90;;;;;;5041205;28;20033;-61
2023/08/01 04:54:10;;;;;;;4.28;2.50;;;19.90;70.90;;;;;;5038502;28;20068;-61
2023/08/01 04:56:36;;;;;;;5.55;2.90;;;19.90;71.00;;;;;;5046526;28;20404;-60
2023/08/01 04:59:02;;;;;;;4.43;2.90;;;19.90;71.10;;;;;;5036402;28;20032;-60
2023/08/01 05:01:27;;;;;;;3.92;2.80;;;19.90;71.20;;;;;;5046107;28;20029;-60
2023/08/01 05:03:53;;;;;;;5.35;3.03;;;19.90;71.30;;;;;;5045890;28;20028;-60
2023/08/01 05:06:18;;;;;;;4.65;2.63;;;19.90;71.30;;;;;;5047665;28;20032;-61
2023/08/01 05:08:44;;;;;;;6.72;2.90;;;19.90;71.50;;;;;;5024548;28;20113;-61
2023/08/01 05:11:10;;;;;;;6.40;2.67;;;19.90;71.50;;;;;;5017188;28;20053;-61
2023/08/01 05:13:36;;;;;;;4.22;2.88;;;19.90;71.60;;;;;;5042821;28;20032;-61
2023/08/01 05:16:10;;;;;;;5.78;2.83;;;19.90;71.50;;;;;;5045460;28;20044;-61
2023/08/01 05:18:35;;;;;;;;;;;19.80;71.70;;;;;;5038100;28;20026;-61
2023/08/01 05:21:01;;;;;;;6.32;2.60;;;20.00;71.40;;;;;;5040880;28;19954;-61
2023/08/01 05:23:27;;;;;;;9.88;2.80;;;20.00;70.80;;;;;;5037095;28;20041;-60
2023/08/01 05:25:53;;;;;;;4.53;3.10;;;20.00;71.20;;;;;;5019276;28;20504;-60
2023/08/01 05:28:18;;;;;;;5.18;2.83;;;19.90;71.30;;;;;;5041055;28;20460;-60
2023/08/01 05:30:45;;;;;;;5.53;3.22;;;19.90;71.50;;;;;;5045332;28;20065;-60
2023/08/01 05:33:11;;;;;;;15.05;3.67;;;19.90;71.60;;;;;;5044493;28;20036;-59
2023/08/01 05:35:36;;;;;;;15.48;3.72;;;19.90;71.60;;;;;;5043251;28;20029;-60
2023/08/01 05:38:02;;;;;;;13.27;3.72;;;19.90;71.50;;;;;;5044319;28;20124;-60
2023/08/01 05:40:28;;;;;;;6.68;3.40;;;19.90;71.50;;;;;;5042562;28;20025;-60
2023/08/01 05:42:53;;;;;;;3.28;2.55;;;19.90;71.50;;;;;;5042496;28;20029;-60
2023/08/01 05:45:19;;;;;;;4.93;2.70;;;19.80;71.30;;;;;;5049066;28;20037;-61
2023/08/01 05:47:45;;;;;;;6.20;2.80;;;19.90;71.40;;;;;;5052309;28;20048;-60
2023/08/01 05:50:10;;;;;;;5.40;3.13;;;19.80;71.40;;;;;;5043606;28;20065;-60
2023/08/01 05:52:36;;;;;;;6.10;3.10;;;19.80;71.50;;;;;;5042225;28;20025;-61
2023/08/01 05:55:02;;;;;;;6.25;2.78;;;19.80;71.40;;;;;;5046964;28;20078;-60
2023/08/01 05:57:28;;;;;;;6.47;3.17;;;19.80;71.40;;;;;;5040417;28;20022;-60
2023/08/01 05:59:54;;;;;;;3.95;3.00;;;19.90;71.50;;;;;;5034648;28;20021;-61
2023/08/01 06:02:20;;;;;;;5.18;3.03;;;19.90;71.70;;;;;;5036904;28;20082;-61
2023/08/01 06:04:45;;;;;;;6.28;3.22;;;19.90;71.80;;;;;;5043852;28;20075;-60
2023/08/01 06:07:11;;;;;;;6.45;3.22;;;19.90;71.70;;;;;;5036034;28;20033;-60
2023/08/01 06:09:37;;;;;;;9.95;3.00;;;19.90;71.70;;;;;;5031981;28;20100;-59
2023/08/01 06:12:03;;;;;;;8.38;3.33;;;20.00;71.90;;;;;;5035885;28;20068;-59
2023/08/01 06:14:28;;;;;;;6.22;2.92;;;20.00;71.70;;;;;;5017885;28;20349;-59
2023/08/01 06:16:54;;;;;;;8.80;3.38;;;20.00;71.90;;;;;;4977028;28;20100;-60
2023/08/01 06:19:20;;;;;;;5.35;3.40;;;20.10;72.30;;;;;;5036821;28;20033;-61
2023/08/01 06:21:46;;;;;;;6.07;2.88;;;20.10;72.30;;;;;;5045967;28;20035;-59
2023/08/01 06:24:11;;;;;;;5.35;3.20;;;20.20;72.30;;;;;;5042770;28;20064;-60
2023/08/01 06:26:37;;;;;;;4.78;3.08;;;20.30;72.10;;;;;;5041085;28;20031;-61
2023/08/01 06:29:02;;;;;;;7.72;3.47;;;20.40;72.00;;;;;;5036222;28;20418;-62
2023/08/01 06:31:28;;;;;;;4.72;3.30;;;20.40;72.00;;;;;;5043226;28;20341;-61
2023/08/01 06:33:54;;;;;;;5.22;3.13;;;20.50;71.90;;;;;;5042500;28;20364;-62
2023/08/01 06:36:20;;;;;;;5.20;3.03;;;20.60;71.70;;;;;;5043883;28;20025;-61
2023/08/01 06:38:46;;;;;;;5.82;2.95;;;20.70;71.50;;;;;;5035189;28;20036;-61
2023/08/01 06:41:12;;;;;;;12.52;3.50;;;20.70;70.90;;;;;;5044724;28;20028;-62
2023/08/01 06:43:38;;;;;;;6.32;3.10;;;20.70;70.90;;;;;;5038183;28;20372;-60
2023/08/01 06:46:04;;;;;;;5.53;3.00;;;20.70;70.50;;;;;;5038808;28;20106;-61
2023/08/01 06:48:30;;;;;;;5.07;3.20;;;20.70;70.40;;;;;;5041428;28;20025;-61
2023/08/01 06:50:56;;;;;;;6.22;2.92;;;20.80;70.60;;;;;;5042576;28;20399;-61
2023/08/01 06:53:23;;;;;;;7.15;2.85;;;20.80;70.30;;;;;;5041477;28;20087;-61
2023/08/01 06:55:50;;;;;;;7.97;3.20;;;20.80;70.10;;;;;;5034126;28;20511;-61
2023/08/01 06:58:16;;;;;;;4.57;3.30;;;20.80;69.80;;;;;;5022846;28;20361;-60
2023/08/01 07:00:41;;;;;;;10.18;3.30;;;20.80;69.50;;;;;;5041204;28;20083;-61
2023/08/01 07:03:07;;;;;;;12.80;3.25;;;20.80;69.30;;;;;;5038115;28;20033;-60
2023/08/01 07:05:33;;;;;;;6.20;3.20;;;20.80;69.40;;;;;;5046301;28;20500;-61
2023/08/01 07:07:59;;;;;;;6.55;3.08;;;20.70;69.20;;;;;;5041195;28;20035;-60
2023/08/01 07:10:25;;;;;;;9.00;3.47;;;20.70;69.20;;;;;;5046954;28;20105;-61
2023/08/01 07:12:50;;;;;;;8.35;3.08;;;20.70;69.00;;;;;;5047737;28;20117;-60
2023/08/01 07:15:16;;;;;;;5.85;3.10;;;20.70;69.00;;;;;;5046163;28;20039;-60
2023/08/01 07:17:42;;;;;;;5.55;3.03;;;20.70;69.00;;;;;;4950661;28;20041;-60
2023/08/01 07:20:08;;;;;;;5.53;3.00;;;20.70;68.90;;;;;;5037775;28;20060;-60
2023/08/01 07:22:33;;;;;;;5.43;3.20;;;20.60;69.10;;;;;;5042597;28;20144;-60
2023/08/01 07:24:59;;;;;;;8.82;2.95;;;20.60;68.90;;;;;;5045827;28;20116;-60
2023/08/01 07:27:25;;;;;;;5.65;3.00;;;20.60;69.10;;;;;;5047415;28;20063;-61
2023/08/01 07:29:50;;;;;;;7.38;3.20;;;20.60;69.50;;;;;;5044226;28;20021;-62
2023/08/01 07:32:16;;;;;;;6.53;2.80;;;20.60;69.50;;;;;;5046433;28;20037;-61
2023/08/01 07:34:42;;;;;;;6.15;2.95;;;20.60;69.30;;;;;;5013265;28;20490;-62
2023/08/01 07:37:08;;;;;;;5.32;3.20;;;20.60;69.10;;;;;;5038816;28;21128;-62
2023/08/01 07:39:34;;;;;;;4.32;3.20;;;20.60;69.60;;;;;;5024123;28;20752;-60
2023/08/01 07:42:00;;;;;;;6.38;3.70;;;20.60;69.80;;;;;;5047832;28;20044;-60
2023/08/01 07:44:26;;;;;;;7.57;3.03;;;20.60;70.00;;;;;;5047273;28;20029;-60
2023/08/01 07:46:52;;;;;;;6.15;3.20;;;20.60;70.20;;;;;;5027671;28;20395;-60
2023/08/01 07:49:18;;;;;;;4.78;3.65;;;20.70;69.80;;;;;;5049983;28;20023;-61
2023/08/01 07:51:43;;;;;;;6.40;2.97;;;20.70;69.50;;;;;;5046898;28;20025;-61
2023/08/01 07:54:10;;;;;;;5.10;3.20;;;20.70;69.00;;;;;;5045416;28;20033;-61
2023/08/01 07:56:35;;;;;;;3.80;3.10;;;20.70;68.90;;;;;;5047412;28;20049;-62
2023/08/01 07:59:01;;;;;;;6.85;3.50;;;20.70;69.20;;;;;;5042278;28;20021;-61
2023/08/01 08:01:27;;;;;;;6.35;2.72;;;20.80;69.30;;;;;;5041754;28;20025;-61
2023/08/01 08:03:52;;;;;;;8.60;3.45;;;20.80;69.20;;;;;;5044008;28;20036;-61
2023/08/01 08:06:21;;;;;;;4.97;3.13;;;20.90;69.00;;;;;;5045092;28;20422;-60
2023/08/01 08:08:46;;;;;;;4.57;3.35;;;20.90;69.30;;;;;;5044248;28;20014;-61
2023/08/01 08:11:12;;;;;;;5.85;3.47;;;20.90;68.40;;;;;;5046322;28;20153;-61
2023/08/01 08:13:37;;;;;;;9.95;3.75;;;20.90;68.20;;;;;;5046591;28;20028;-60
2023/08/01 08:16:04;;;;;;;4.45;3.03;;;21.00;67.80;;;;;;5045883;28;20025;-60
2023/08/01 08:18:30;;;;;;;6.78;3.42;;;20.90;67.60;;;;;;4969747;28;20396;-61
2023/08/01 08:20:56;;;;;;;13.27;3.60;;;21.00;67.90;;;;;;5044299;28;20025;-60
2023/08/01 08:23:21;;;;;;;5.90;3.33;;;20.90;67.60;;;;;;5049152;28;20044;-61
2023/08/01 08:25:47;;;;;;;4.65;2.97;;;20.90;67.70;;;;;;5039716;28;20179;-61
2023/08/01 08:28:13;;;;;;;8.02;3.25;;;20.90;67.80;;;;;;5043572;28;20365;-61
2023/08/01 08:30:39;;;;;;;4.78;2.92;;;20.90;67.60;;;;;;5039568;28;20468;-61
2023/08/01 08:33:06;;;;;;;4.30;3.22;;;21.00;67.70;;;;;;5043264;28;20044;-62
2023/08/01 08:35:35;;;;;;;4.30;3.15;;;21.00;68.10;;;;;;5042159;28;20058;-61
2023/08/01 08:38:05;;;;;;;4.18;3.03;;;21.00;68.30;;;;;;5029830;28;20033;-60
2023/08/01 08:40:38;;;;;;;7.25;3.40;;;21.00;68.00;;;;;;5042755;28;20626;-60
2023/08/01 08:43:03;;;;;;;5.70;3.67;;;21.00;68.00;;;;;;5036670;28;20032;-61
2023/08/01 08:45:35;;;;;;;6.05;3.17;;;21.00;68.20;;;;;;5044707;28;20045;-61
2023/08/01 08:48:07;;;;;;;6.25;3.20;;;21.00;68.20;;;;;;5055758;28;20032;-61
2023/08/01 08:50:35;;;;;;;7.68;3.10;;;21.00;68.10;;;;;;5051173;28;20044;-61
2023/08/01 08:53:01;;;;;;;5.53;3.38;;;21.00;68.30;;;;;;5048399;28;20025;-61
2023/08/01 08:55:28;;;;;;;5.57;3.28;;;20.90;68.30;;;;;;5042022;28;20052;-61
2023/08/01 08:57:55;;;;;;;3.75;3.25;;;20.80;68.30;;;;;;5047908;28;20603;-61
2023/08/01 09:00:21;;;;;;;5.15;3.15;;;20.80;68.50;;;;;;5042555;28;20056;-60
2023/08/01 09:02:47;;;;;;;6.90;3.28;;;20.70;68.90;;;;;;5038564;28;20025;-61
2023/08/01 09:05:13;;;;;;;4.95;2.92;;;20.70;68.90;;;;;;5043169;28;20091;-62
2023/08/01 09:07:42;;;;;;;4.68;3.28;;;20.70;69.30;;;;;;5042919;28;20345;-60
2023/08/01 09:10:08;;;;;;;7.07;3.78;;;20.70;69.70;;;;;;5043088;28;22450;-61
2023/08/01 09:12:35;;;;;;;10.02;3.90;;;20.60;69.60;;;;;;5047071;28;20072;-61
2023/08/01 09:15:01;;;;;;;9.57;4.50;;;20.60;69.60;;;;;;5047757;28;20029;-62
2023/08/01 09:17:26;;;;;;;9.70;4.32;;;20.60;69.70;;;;;;5038212;28;20029;-61
2023/08/01 09:20:07;;;;;;;11.43;4.28;;;20.50;69.80;;;;;;5041762;28;20029;-60
2023/08/01 09:22:46;;;;;;;6.80;3.97;;;20.60;70.40;;;;;;5037100;28;20021;-62
2023/08/01 09:25:12;;;;;;;5.90;3.55;;;20.50;70.70;;;;;;5040038;28;20035;-62
2023/08/01 09:27:38;;;;;;;6.43;3.80;;;20.50;70.50;;;;;;5025623;28;20059;-60
2023/08/01 09:30:07;;;;;;;7.07;3.50;;;20.50;70.90;;;;;;5029846;28;20037;-61
2023/08/01 09:32:33;;;;;;;6.18;3.78;;;20.50;71.00;;;;;;5036773;28;20603;-61
2023/08/01 09:35:03;;;;;;;6.70;3.88;;;20.50;70.90;;;;;;5042770;28;20360;-61
2023/08/01 09:37:41;;;;;;;8.32;3.80;;;20.50;71.00;;;;;;5047852;28;20025;-61
2023/08/01 09:40:11;;;;;;;6.00;3.85;;;20.50;71.20;;;;;;5040268;28;20526;-61
2023/08/01 09:42:44;;;;;;;5.15;3.75;;;20.50;70.60;;;;;;5036998;28;20033;-61
2023/08/01 09:45:17;;;;;;;5.38;3.53;;;20.50;70.90;;;;;;5027841;28;20380;-61
2023/08/01 09:47:44;;;;;;;3.78;3.20;;;20.60;71.40;;;;;;5035795;28;20770;-61
2023/08/01 09:50:12;;;;;;;6.57;3.78;;;20.60;71.20;;;;;;5046263;28;20114;-60
2023/08/01 09:52:39;;;;;;;5.13;3.72;;;20.70;70.90;;;;;;5042332;28;20028;-60
2023/08/01 09:55:05;;;;;;;5.30;3.40;;;20.80;70.50;;;;;;5027625;28;20476;-60
2023/08/01 09:57:31;;;;;;;7.57;3.45;;;20.90;70.30;;;;;;5042451;28;20038;-60
2023/08/01 09:59:58;;;;;;;7.43;3.55;;;21.00;70.10;;;;;;5040998;28;20474;-60
2023/08/01 10:02:31;;;;;;;6.20;3.70;;;21.00;69.30;;;;;;5034763;28;20511;-62
2023/08/01 10:05:00;;;;;;;4.95;3.35;;;21.10;69.30;;;;;;5022736;28;20032;-61
2023/08/01 10:07:28;;;;;;;5.45;3.55;;;21.10;68.90;;;;;;5044768;28;20128;-61
2023/08/01 10:09:58;;;;;;;4.75;3.33;;;21.10;68.80;;;;;;5036539;28;20025;-60
2023/08/01 10:12:26;;;;;;;4.65;3.42;;;21.10;69.00;;;;;;5042825;28;20037;-60
2023/08/01 10:14:53;;;;;;;5.63;3.42;;;21.10;68.60;;;;;;5041108;28;20021;-60
2023/08/01 10:17:20;;;;;;;4.05;2.88;;;21.10;68.90;;;;;;5036712;28;20032;-61
2023/08/01 10:19:48;;;;;;;4.00;2.83;;;21.10;69.40;;;;;;5031894;28;20059;-61
2023/08/01 10:22:15;;;;;;;5.38;3.03;;;21.10;69.40;;;;;;5033651;28;20018;-61
2023/08/01 10:24:41;;;;;;;3.08;2.70;;;21.20;69.70;;;;;;5036041;28;20043;-61
2023/08/01 10:27:14;;;;;;;4.03;2.83;;;21.20;69.40;;;;;;5024528;28;20111;-62
2023/08/01 10:29:39;;;;;;;3.75;3.08;;;21.30;69.40;;;;;;5037884;28;20094;-61
2023/08/01 10:32:07;;;;;;;3.63;2.90;;;21.30;69.30;;;;;;5041870;28;20068;-60
2023/08/01 10:34:33;;;;;;;5.30;3.08;;;21.30;68.80;;;;;;5040724;28;20025;-62
2023/08/01 10:36:59;;;;;;;5.82;2.88;;;21.20;68.70;;;;;;5039176;28;20029;-63
2023/08/01 10:39:27;;;;;;;4.10;2.88;;;21.20;68.50;;;;;;5038149;28;20075;-61
2023/08/01 10:42:05;;;;;;;4.03;3.10;;;21.10;68.80;;;;;;5041977;28;20021;-62
2023/08/01 10:44:33;;;;;;;3.03;2.67;;;21.00;68.60;;;;;;5038502;28;20033;-62
2023/08/01 10:47:04;;;;;;;3.83;2.22;;;21.00;68.40;;;;;;5042939;28;20036;-63
2023/08/01 10:49:40;;;;;;;3.22;2.50;;;20.90;69.20;;;;;;5037967;28;20078;-63
2023/08/01 10:52:23;;;;;;;3.97;2.17;;;20.80;69.40;;;;;;5032167;28;20031;-63
2023/08/01 10:55:00;;;;;;;3.42;2.33;;;20.70;69.60;;;;;;5042978;28;20138;-62
2023/08/01 10:57:28;;;;;;;3.10;2.00;;;20.60;70.40;;;;;;5034253;28;20038;-62
2023/08/01 10:59:55;;;;;;;2.95;2.25;;;20.60;69.90;;;;;;5039547;28;20353;-63
2023/08/01 11:02:25;;;;;;;3.47;2.25;;;20.60;70.00;;;;;;5044511;28;20029;-63
2023/08/01 11:05:01;;;;;;;3.03;2.13;;;20.60;70.50;;;;;;5044746;28;20043;-62
2023/08/01 11:07:27;;;;;;;2.80;1.60;;;20.60;71.00;;;;;;5031803;28;20030;-61
2023/08/01 11:10:05;;;;;;;3.78;1.80;;;20.70;70.50;;;;;;5040261;28;20029;-61
2023/08/01 11:12:37;;;;;;;2.85;2.00;;;20.70;71.30;;;;;;5036455;28;20033;-61
2023/08/01 11:15:05;;;;;;;1.70;1.42;;;20.70;70.50;;;;;;5038109;28;20044;-61
2023/08/01 11:17:32;;;;;;;1.73;1.33;;;20.70;70.10;;;;;;4957072;28;20017;-61
2023/08/01 11:20:04;;;;;;;2.03;1.40;;;20.70;70.00;;;;;;5035160;28;20036;-61
2023/08/01 11:22:30;;;;;;;1.38;1.23;;;20.80;70.10;;;;;;5036074;28;20029;-61
2023/08/01 11:24:56;;;;;;;3.10;1.70;;;20.80;70.00;;;;;;5040088;28;20025;-62
2023/08/01 11:27:21;;;;;;;1.30;1.20;;;20.70;70.20;;;;;;5041004;28;20553;-62
2023/08/01 11:29:47;;;;;;;1.48;1.00;;;20.80;70.00;;;;;;5024370;28;20091;-60
2023/08/01 11:32:13;;;;;;;2.42;1.40;;;20.80;70.10;;;;;;5039924;28;20025;-61
2023/08/01 11:34:46;;;;;;;2.45;1.20;;;20.80;70.00;;;;;;5043706;28;20025;-61
2023/08/01 11:37:13;;;;;;;1.20;1.10;;;20.80;70.20;;;;;;5037966;28;20079;-61
2023/08/01 11:39:39;;;;;;;1.60;1.23;;;20.80;70.30;;;;;;5037713;28;20025;-61
2023/08/01 11:42:05;;;;;;;2.35;1.38;;;20.80;70.70;;;;;;5043773;28;20056;-61
2023/08/01 11:44:31;;;;;;;2.75;1.70;;;20.80;70.90;;;;;;5037255;28;20033;-62
2023/08/01 11:46:57;;;;;;;1.95;1.70;;;20.90;70.70;;;;;;5049279;28;20098;-62
2023/08/01 11:49:23;;;;;;;1.77;1.60;;;20.90;70.90;;;;;;5041353;28;20491;-62
2023/08/01 11:51:49;;;;;;;3.03;1.60;;;20.90;70.50;;;;;;5043571;28;20061;-62
2023/08/01 11:54:17;;;;;;;1.63;1.50;;;21.00;71.60;;;;;;5039884;28;20112;-62
2023/08/01 11:56:43;;;;;;;3.10;1.75;;;21.10;72.20;;;;;;5039697;28;20045;-61
2023/08/01 11:59:10;;;;;;;1.50;1.35;;;21.30;73.70;;;;;;5044338;28;20033;-61
2023/08/01 12:01:40;;;;;;;3.83;1.50;;;21.50;72.20;;;;;;5041180;28;20025;-62
2023/08/01 12:04:06;;;;;;;1.98;1.20;;;21.70;71.50;;;;;;5040630;28;20029;-62
2023/08/01 12:06:33;;;;;;;1.40;1.15;;;22.00;71.10;;;;;;5029823;28;20033;-63
2023/08/01 12:09:13;;;;;;;1.25;1.10;;;22.20;70.40;;;;;;5041276;28;20079;-60
2023/08/01 12:11:41;;;;;;;1.38;1.08;;;22.40;69.60;;;;;;5040941;28;20039;-61
2023/08/01 12:14:13;;;;;;;2.15;0.70;;;22.70;69.30;;;;;;5038899;28;20079;-61
2023/08/01 12:16:46;;;;;;;1.80;1.00;;;22.90;68.60;;;;;;5040030;28;20111;-61
2023/08/01 12:19:19;;;;;;;1.83;1.00;;;23.10;68.10;;;;;;5042975;28;20053;-62
2023/08/01 12:21:45;;;;;;;1.20;0.93;;;23.30;67.60;;;;;;5041456;28;20306;-61
2023/08/01 12:24:11;;;;;;;0.70;0.70;;;23.50;67.20;;;;;;5038885;28;20472;-62
2023/08/01 12:26:36;;;;;;;1.83;1.08;;;23.70;66.40;;;;;;5025858;28;20043;-61
2023/08/01 12:29:02;;;;;;;1.15;0.70;;;23.90;65.80;;;;;;5048956;28;20108;-62
2023/08/01 12:31:28;;;;;;;1.50;0.70;;;24.00;64.80;;;;;;5039963;28;20492;-61
2023/08/01 12:33:54;;;;;;;1.00;0.80;;;24.00;63.60;;;;;;5047385;28;20795;-62
2023/08/01 12:36:20;;;;;;;0.80;0.80;;;24.00;62.70;;;;;;5039688;28;20151;-62
2023/08/01 12:38:46;;;;;;;3.00;0.70;;;24.00;63.20;;;;;;5044805;28;20075;-62
2023/08/01 12:41:12;;;;;;;1.35;0.70;;;23.90;62.50;;;;;;5036156;28;20048;-61
2023/08/01 12:43:37;;;;;;;0.70;0.63;;;23.80;63.00;;;;;;5037295;28;20033;-61